Terminal Aerodrome Forecast
Issued by NWS

Home | Current Version | Previous Version | Text Only | Print | Product List | Glossary Off
Versions: 1 2 3 4 5 6 7 8 9 10 11 12

989
FTUS43 KICT 221120
TAFRSL
TAF
KRSL 221120Z 2212/2312 34010KT P6SM BKN200
     FM221600 31015G22KT P6SM FEW250
     FM231100 27007KT P6SM SKC=

USA.gov is the U.S. government's official web portal to all federal, state and local government web resources and services.